Time;durP1;ratioP1;P1;durP2;ratioP2;P2;SDS_P1;SDS_P2;PMS_P1;PMS_P2;Temp;Humidity;BMP_temperature;BMP_pressure;BME280_temperature;BME280_humidity;BME280_pressure;Samples;Min_cycle;Max_cycle;Signal;HPM_P1;HPM_P2
2021/12/21 00:02:20;;;;;;;24.60;13.50;;;4.80;80.40;;;;;;5063846;28;20178;-87
2021/12/21 00:04:46;;;;;;;30.77;14.23;;;4.60;80.70;;;;;;5022776;28;20185;-83
2021/12/21 00:07:11;;;;;;;30.50;13.83;;;4.60;81.30;;;;;;5021784;28;20174;-87
2021/12/21 00:09:37;;;;;;;28.67;14.13;;;4.40;83.90;;;;;;5026802;28;20197;-86
2021/12/21 00:12:03;;;;;;;34.17;14.77;;;4.30;86.80;;;;;;5032142;28;20170;-84
2021/12/21 00:14:44;;;;;;;28.77;14.83;;;4.40;89.00;;;;;;5032247;28;20237;-90
2021/12/21 00:17:19;;;;;;;26.53;14.50;;;4.30;88.60;;;;;;5035374;28;20177;-87
2021/12/21 00:20:10;;;;;;;35.30;14.47;;;4.30;89.90;;;;;;5039238;28;20254;-87
2021/12/21 00:25:18;;;;;;;26.87;15.20;;;4.00;90.80;;;;;;5046878;28;20200;-90
2021/12/21 00:27:48;;;;;;;31.50;16.03;;;3.90;92.00;;;;;;5036244;28;20178;-89
2021/12/21 00:30:15;;;;;;;32.63;16.03;;;3.80;92.50;;;;;;5024020;28;20661;-89
2021/12/21 00:32:43;;;;;;;34.80;17.00;;;3.80;92.80;;;;;;5052539;28;20193;-92
2021/12/21 00:35:15;;;;;;;31.50;17.30;;;3.70;93.40;;;;;;5010739;28;20197;-90
2021/12/21 00:37:42;;;;;;;34.13;19.07;;;3.70;94.30;;;;;;5047130;28;20165;-89
2021/12/21 00:40:09;;;;;;;32.50;19.03;;;3.70;94.00;;;;;;5033161;28;20243;-86
2021/12/21 00:42:37;;;;;;;30.23;17.77;;;3.80;93.90;;;;;;5038148;28;20189;-84
2021/12/21 00:45:04;;;;;;;32.63;18.37;;;3.70;93.50;;;;;;5056316;28;20185;-86
2021/12/21 00:47:39;;;;;;;37.77;19.83;;;3.70;94.00;;;;;;5045218;28;20166;-82
2021/12/21 00:50:16;;;;;;;33.03;18.80;;;3.60;94.20;;;;;;5044665;28;20193;-81
2021/12/21 00:52:52;;;;;;;34.53;18.57;;;3.50;94.80;;;;;;5043392;28;20198;-80
2021/12/21 00:55:19;;;;;;;33.70;17.90;;;3.50;95.00;;;;;;5035079;28;20214;-82
2021/12/21 00:57:49;;;;;;;33.23;17.87;;;3.60;95.10;;;;;;5036885;28;20175;-90
2021/12/21 01:00:18;;;;;;;39.50;18.53;;;3.50;95.40;;;;;;5034935;28;20217;-81
2021/12/21 01:02:44;;;;;;;33.10;17.10;;;3.50;95.70;;;;;;5043775;28;20177;-84
2021/12/21 01:08:12;;;;;;;33.93;18.37;;;3.40;96.10;;;;;;5018620;28;20252;-88
2021/12/21 01:11:06;;;;;;;30.97;17.33;;;3.40;96.20;;;;;;5019942;28;20559;-85
2021/12/21 01:16:35;;;;;;;31.40;17.03;;;3.40;96.50;;;;;;5022504;28;20174;-88
2021/12/21 01:21:32;;;;;;;31.03;17.30;;;3.50;96.60;;;;;;5024400;28;20273;-86
2021/12/21 01:26:52;;;;;;;30.83;16.73;;;3.50;96.80;;;;;;5021367;28;20228;-84
2021/12/21 01:29:36;;;;;;;33.97;18.03;;;3.50;96.50;;;;;;5022676;28;20198;-82
2021/12/21 01:32:13;;;;;;;40.47;18.63;;;3.50;96.50;;;;;;5024044;28;20242;-82
2021/12/21 01:34:48;;;;;;;36.03;19.13;;;3.40;96.70;;;;;;5041732;28;20234;-78
2021/12/21 01:37:25;;;;;;;35.23;18.97;;;3.50;96.70;;;;;;5041200;28;20162;-84
2021/12/21 01:40:02;;;;;;;36.40;20.77;;;3.40;96.50;;;;;;5041347;28;20190;-80
2021/12/21 01:51:36;;;;;;;39.53;19.87;;;3.20;97.70;;;;;;5033401;28;20181;-89
2021/12/21 01:54:21;;;;;;;34.83;18.17;;;3.30;97.70;;;;;;5024610;28;20221;-84
2021/12/21 01:57:11;;;;;;;38.23;20.97;;;3.10;97.80;;;;;;5022781;28;20178;-84
2021/12/21 01:59:38;;;;;;;41.67;20.50;;;3.10;98.20;;;;;;5023392;28;20241;-81
2021/12/21 02:02:08;;;;;;;34.33;19.50;;;3.20;98.40;;;;;;5034701;28;20154;-82
2021/12/21 02:04:34;;;;;;;34.93;20.87;;;3.20;98.40;;;;;;5041100;28;20182;-80
2021/12/21 02:07:00;;;;;;;40.30;21.00;;;3.20;98.30;;;;;;5036671;28;20182;-82
2021/12/21 02:09:37;;;;;;;36.43;20.37;;;3.20;98.40;;;;;;5029480;28;20300;-82
2021/12/21 02:12:10;;;;;;;35.97;19.90;;;3.30;98.60;;;;;;5041430;28;20158;-80
2021/12/21 02:14:38;;;;;;;39.90;20.07;;;3.20;98.20;;;;;;5041240;28;20194;-82
2021/12/21 02:19:58;;;;;;;39.70;20.53;;;3.10;98.10;;;;;;4953827;29;20177;-86
2021/12/21 02:22:35;;;;;;;34.80;19.10;;;2.90;98.40;;;;;;5012702;28;20196;-86
2021/12/21 02:25:34;;;;;;;36.83;18.80;;;2.70;98.80;;;;;;5025682;28;20162;-85
2021/12/21 02:28:21;;;;;;;33.77;19.60;;;2.70;99.30;;;;;;5027485;28;20190;-86
2021/12/21 02:30:50;;;;;;;34.57;17.63;;;2.60;99.60;;;;;;5028970;28;20205;-82
2021/12/21 02:33:17;;;;;;;29.97;18.00;;;2.60;99.90;;;;;;5040260;28;20201;-79
2021/12/21 02:35:43;;;;;;;34.33;19.93;;;2.50;99.90;;;;;;5037580;28;20189;-80
2021/12/21 02:38:09;;;;;;;32.30;19.30;;;2.50;99.90;;;;;;5034553;28;20167;-84
2021/12/21 02:41:09;;;;;;;39.37;20.10;;;2.60;99.90;;;;;;5031934;28;20201;-86
2021/12/21 02:43:38;;;;;;;31.43;19.23;;;2.60;99.90;;;;;;5026055;28;20220;-88
2021/12/21 02:46:04;;;;;;;36.40;21.07;;;2.70;99.90;;;;;;5023600;28;20257;-85
2021/12/21 02:48:30;;;;;;;43.23;21.20;;;2.60;99.90;;;;;;5024327;28;20197;-81
2021/12/21 02:50:55;;;;;;;36.30;21.40;;;2.60;99.90;;;;;;5028506;28;20171;-83
2021/12/21 02:53:21;;;;;;;35.43;21.33;;;2.60;99.90;;;;;;5024800;28;20218;-84
2021/12/21 02:55:48;;;;;;;37.30;21.37;;;2.50;99.90;;;;;;5028401;28;20202;-86
2021/12/21 02:58:15;;;;;;;39.63;21.03;;;2.50;99.90;;;;;;5028410;28;20289;-89
2021/12/21 03:00:40;;;;;;;34.93;21.37;;;2.50;99.90;;;;;;5039059;28;20198;-87
2021/12/21 03:03:12;;;;;;;43.20;22.77;;;2.60;99.90;;;;;;5023918;28;20186;-80
2021/12/21 03:05:38;;;;;;;38.10;22.83;;;2.60;99.90;;;;;;5026957;28;20198;-80
2021/12/21 03:08:11;;;;;;;40.30;22.80;;;2.60;99.90;;;;;;5020744;28;20205;-86
2021/12/21 03:10:38;;;;;;;43.53;23.20;;;2.70;99.90;;;;;;5016056;28;20189;-81
2021/12/21 03:15:48;;;;;;;36.30;22.00;;;2.60;99.90;;;;;;5018226;28;20209;-87
2021/12/21 03:18:21;;;;;;;33.90;21.60;;;2.50;99.90;;;;;;5017425;28;20589;-86
2021/12/21 03:20:47;;;;;;;36.90;22.27;;;2.40;99.90;;;;;;5023622;28;20200;-81
2021/12/21 03:23:13;;;;;;;40.60;21.70;;;2.40;99.90;;;;;;5029313;28;20174;-80
2021/12/21 03:25:39;;;;;;;33.33;19.40;;;2.30;99.90;;;;;;5037861;28;20181;-80
2021/12/21 03:28:04;;;;;;;31.70;20.13;;;2.30;99.90;;;;;;5054967;28;20161;-79
2021/12/21 03:30:30;;;;;;;37.70;21.87;;;2.40;99.90;;;;;;5034157;28;20241;-81
2021/12/21 03:32:59;;;;;;;33.13;19.67;;;2.40;99.90;;;;;;5027726;28;20252;-83
2021/12/21 03:35:52;;;;;;;33.73;20.17;;;2.40;99.90;;;;;;5024704;28;20178;-82
2021/12/21 03:38:18;;;;;;;34.73;18.90;;;2.50;99.90;;;;;;5029622;28;20170;-82
2021/12/21 03:40:44;;;;;;;32.67;19.13;;;2.50;99.90;;;;;;5018761;28;20201;-83
2021/12/21 03:43:11;;;;;;;32.07;19.17;;;2.50;99.90;;;;;;5015524;28;20536;-81
2021/12/21 03:45:47;;;;;;;32.20;19.30;;;2.40;99.90;;;;;;5016494;28;20650;-83
2021/12/21 03:48:15;;;;;;;30.90;18.87;;;2.40;99.90;;;;;;5016310;28;20170;-86
2021/12/21 03:50:41;;;;;;;34.90;20.13;;;2.50;99.90;;;;;;5015153;28;20178;-89
2021/12/21 03:53:08;;;;;;;33.33;18.83;;;2.40;99.90;;;;;;5015282;28;20216;-89
2021/12/21 03:55:35;;;;;;;34.13;19.43;;;2.40;99.90;;;;;;5018968;28;20173;-84
2021/12/21 03:58:01;;;;;;;35.03;18.40;;;2.30;99.90;;;;;;5017510;28;20220;-84
2021/12/21 04:00:28;;;;;;;32.27;18.77;;;2.10;99.90;;;;;;5026972;28;20171;-87
2021/12/21 04:02:54;;;;;;;36.10;18.77;;;2.10;99.90;;;;;;5034589;28;20159;-83
2021/12/21 04:05:20;;;;;;;32.87;19.43;;;2.10;99.90;;;;;;5038805;28;20234;-81
2021/12/21 04:07:45;;;;;;;35.07;19.13;;;2.10;99.90;;;;;;5033416;28;20193;-81
2021/12/21 04:10:12;;;;;;;30.57;19.33;;;2.20;99.90;;;;;;5035720;28;20174;-90
2021/12/21 04:12:38;;;;;;;41.47;20.73;;;2.20;99.90;;;;;;5028389;28;20210;-89
2021/12/21 04:15:17;;;;;;;33.00;18.43;;;2.20;99.90;;;;;;5018016;28;20252;-86
2021/12/21 04:17:45;;;;;;;33.13;19.47;;;2.10;99.90;;;;;;5016944;28;20246;-90
2021/12/21 04:20:15;;;;;;;35.87;19.40;;;2.00;99.90;;;;;;5032261;28;20186;-86
2021/12/21 04:22:41;;;;;;;40.87;20.07;;;1.90;99.90;;;;;;5038391;28;20233;-81
2021/12/21 04:28:29;;;;;;;33.20;20.97;;;1.90;99.90;;;;;;5020051;28;20165;-79
2021/12/21 04:30:54;;;;;;;37.57;19.33;;;1.90;99.90;;;;;;5034659;28;20197;-80
2021/12/21 04:33:20;;;;;;;33.30;18.67;;;2.00;99.90;;;;;;5026853;28;20209;-80
2021/12/21 04:35:46;;;;;;;28.47;17.47;;;1.70;99.90;;;;;;5054559;28;20212;-83
2021/12/21 04:38:20;;;;;;;29.67;16.87;;;1.60;99.90;;;;;;5035070;28;20174;-81
2021/12/21 04:40:56;;;;;;;38.00;19.07;;;1.50;99.90;;;;;;5035609;28;20154;-85
2021/12/21 04:43:21;;;;;;;28.60;18.27;;;1.50;99.90;;;;;;5025429;28;20261;-89
2021/12/21 04:45:48;;;;;;;39.50;20.33;;;1.50;99.90;;;;;;5027086;28;20209;-79
2021/12/21 04:48:13;;;;;;;37.53;20.60;;;1.50;99.90;;;;;;5037869;28;20182;-79
2021/12/21 04:50:42;;;;;;;34.47;20.93;;;1.60;99.90;;;;;;5030953;28;20246;-80
2021/12/21 04:53:25;;;;;;;34.97;18.13;;;1.70;99.90;;;;;;5041410;28;20312;-83
2021/12/21 04:55:53;;;;;;;29.30;18.67;;;1.70;99.90;;;;;;5031093;28;20166;-83
2021/12/21 04:58:21;;;;;;;35.83;19.53;;;1.70;99.90;;;;;;5037567;28;20159;-80
2021/12/21 05:00:48;;;;;;;31.30;18.70;;;1.90;99.90;;;;;;5053721;28;20170;-78
2021/12/21 05:03:18;;;;;;;30.93;18.20;;;1.70;99.90;;;;;;5032580;28;20212;-81
2021/12/21 05:05:54;;;;;;;30.37;19.07;;;1.60;99.90;;;;;;5037523;28;20179;-81
2021/12/21 05:08:37;;;;;;;31.13;17.53;;;1.60;99.90;;;;;;5031716;28;20151;-80
2021/12/21 05:14:32;;;;;;;31.13;19.30;;;1.40;99.90;;;;;;5037591;28;20213;-80
2021/12/21 05:16:58;;;;;;;36.73;18.40;;;1.50;99.90;;;;;;5037839;28;20165;-82
2021/12/21 05:19:24;;;;;;;31.77;18.40;;;1.60;99.90;;;;;;5035264;28;20174;-83
2021/12/21 05:21:50;;;;;;;29.60;17.80;;;1.60;99.90;;;;;;5029243;28;20186;-88
2021/12/21 05:24:15;;;;;;;29.97;17.90;;;1.70;99.90;;;;;;5032112;28;20205;-81
2021/12/21 05:26:41;;;;;;;34.13;19.47;;;1.60;99.90;;;;;;5017317;28;20594;-82
2021/12/21 05:29:09;;;;;;;34.47;20.23;;;1.60;99.90;;;;;;5015241;28;20166;-85
2021/12/21 05:31:53;;;;;;;30.20;18.40;;;1.60;99.90;;;;;;5014252;28;20177;-83
2021/12/21 05:34:21;;;;;;;32.00;19.47;;;1.50;99.90;;;;;;5016058;28;20225;-90
2021/12/21 05:36:46;;;;;;;37.13;20.03;;;1.60;99.90;;;;;;5015235;28;20210;-83
2021/12/21 05:39:20;;;;;;;37.43;19.47;;;1.60;99.90;;;;;;5016137;28;20181;-86
2021/12/21 05:41:50;;;;;;;31.50;19.93;;;1.60;99.90;;;;;;5015248;28;20174;-89
2021/12/21 05:44:21;;;;;;;34.37;20.53;;;1.50;99.90;;;;;;5017930;28;20176;-83
2021/12/21 05:46:49;;;;;;;34.93;22.30;;;1.70;99.90;;;;;;5016339;28;20185;-84
2021/12/21 05:49:15;;;;;;;38.47;21.83;;;1.50;99.90;;;;;;5030594;28;20171;-88
2021/12/21 05:51:41;;;;;;;32.93;21.40;;;1.50;99.90;;;;;;5014153;28;20240;-88
2021/12/21 05:54:07;;;;;;;33.20;20.17;;;1.50;99.90;;;;;;5013374;28;20230;-81
2021/12/21 05:56:34;;;;;;;29.87;20.00;;;1.40;99.90;;;;;;5015468;28;20167;-89
2021/12/21 05:59:02;;;;;;;38.40;23.63;;;1.30;99.90;;;;;;5035817;28;20193;-88
2021/12/21 06:01:32;;;;;;;36.20;21.17;;;1.30;99.90;;;;;;5032705;28;20182;-83
2021/12/21 06:04:00;;;;;;;29.13;20.00;;;1.20;99.90;;;;;;5053787;28;20170;-82
2021/12/21 06:06:26;;;;;;;35.73;20.83;;;1.10;99.90;;;;;;5037632;28;20155;-84
2021/12/21 06:08:54;;;;;;;31.70;19.10;;;1.10;99.90;;;;;;5037017;28;20174;-86
2021/12/21 06:11:42;;;;;;;37.97;18.97;;;1.10;99.90;;;;;;5021793;28;20174;-84
2021/12/21 06:25:55;;;;;;;33.00;18.37;;;1.20;99.90;;;;;;5026543;28;20177;-82
2021/12/21 06:28:21;;;;;;;30.63;18.30;;;1.00;99.90;;;;;;5044581;28;20167;-83
2021/12/21 06:30:47;;;;;;;32.33;19.07;;;1.00;99.90;;;;;;5031347;28;20178;-82
2021/12/21 06:33:16;;;;;;;32.60;19.40;;;1.00;99.90;;;;;;5034815;28;20206;-83
2021/12/21 06:35:45;;;;;;;31.83;19.60;;;1.00;99.90;;;;;;5040640;28;20189;-82
2021/12/21 06:38:11;;;;;;;33.17;17.93;;;1.00;99.90;;;;;;5033317;28;20167;-80
2021/12/21 06:40:38;;;;;;;28.27;16.87;;;0.90;99.90;;;;;;5021726;28;20181;-83
2021/12/21 06:43:12;;;;;;;33.67;19.53;;;0.90;99.90;;;;;;5017465;28;20178;-85
2021/12/21 06:53:40;;;;;;;31.33;16.93;;;1.00;99.90;;;;;;5018862;28;20244;-85
2021/12/21 06:56:07;;;;;;;27.50;17.87;;;1.00;99.90;;;;;;5019414;28;20265;-85
2021/12/21 06:58:34;;;;;;;28.77;17.77;;;1.10;99.90;;;;;;5030030;28;20171;-82
2021/12/21 07:01:03;;;;;;;33.87;18.00;;;1.20;99.90;;;;;;5035229;28;20166;-80
2021/12/21 07:03:29;;;;;;;35.90;17.87;;;1.20;99.90;;;;;;5030692;28;20174;-80
2021/12/21 07:06:01;;;;;;;25.33;17.30;;;1.20;99.90;;;;;;5036922;28;20201;-84
2021/12/21 07:08:30;;;;;;;35.03;18.33;;;1.30;99.90;;;;;;5031882;28;20178;-88
2021/12/21 07:19:07;;;;;;;28.23;16.53;;;1.20;99.90;;;;;;5018226;28;20572;-86
2021/12/21 07:21:33;;;;;;;30.47;18.20;;;1.30;99.90;;;;;;5035113;28;20173;-84
2021/12/21 07:23:58;;;;;;;30.70;17.83;;;1.20;99.90;;;;;;5037366;28;20197;-81
2021/12/21 07:26:26;;;;;;;29.43;16.77;;;1.20;99.90;;;;;;5028869;28;20238;-83
2021/12/21 07:28:55;;;;;;;27.33;17.67;;;1.30;99.90;;;;;;5025523;28;20182;-87
2021/12/21 07:32:11;;;;;;;29.67;15.83;;;1.30;99.90;;;;;;5017335;28;20338;-83
2021/12/21 07:34:37;;;;;;;27.23;16.80;;;1.10;99.90;;;;;;5029751;28;20233;-82
2021/12/21 07:37:09;;;;;;;29.40;16.83;;;1.10;99.90;;;;;;5035533;28;20166;-86
2021/12/21 07:39:35;;;;;;;28.70;17.00;;;1.10;99.90;;;;;;5051955;28;20209;-81
2021/12/21 07:42:01;;;;;;;27.93;16.20;;;1.10;99.90;;;;;;5037201;28;20162;-88
2021/12/21 07:44:26;;;;;;;28.80;17.20;;;1.10;99.90;;;;;;5039441;28;20180;-85
2021/12/21 07:46:52;;;;;;;29.83;17.80;;;1.20;99.90;;;;;;5032268;28;20174;-83
2021/12/21 07:49:21;;;;;;;32.17;18.47;;;1.30;99.90;;;;;;5032230;28;20176;-84
2021/12/21 07:51:52;;;;;;;29.77;18.40;;;1.40;99.90;;;;;;5027541;28;20324;-88
2021/12/21 07:54:24;;;;;;;33.47;18.10;;;1.40;99.90;;;;;;5022426;28;20244;-89
2021/12/21 07:56:51;;;;;;;33.40;16.40;;;1.20;99.90;;;;;;5020733;28;20236;-90
2021/12/21 07:59:17;;;;;;;28.93;17.03;;;1.30;99.90;;;;;;5020244;28;20206;-87
2021/12/21 08:01:43;;;;;;;34.73;17.70;;;1.30;99.90;;;;;;5019545;28;20581;-91
2021/12/21 08:04:11;;;;;;;30.70;17.77;;;1.30;99.90;;;;;;5018169;28;20178;-90
2021/12/21 08:06:37;;;;;;;30.53;17.20;;;1.20;99.90;;;;;;5035385;28;20206;-90
2021/12/21 08:09:04;;;;;;;27.83;16.03;;;1.20;99.90;;;;;;5017675;28;20206;-91
2021/12/21 08:14:01;;;;;;;33.70;16.87;;;1.30;99.90;;;;;;5018179;28;20206;-84
2021/12/21 08:16:27;;;;;;;32.77;17.20;;;1.20;99.90;;;;;;5016924;28;20205;-90
2021/12/21 08:18:54;;;;;;;27.83;17.13;;;1.20;99.90;;;;;;5016354;28;20650;-86
2021/12/21 08:21:21;;;;;;;31.33;16.07;;;1.20;99.90;;;;;;5016949;28;20586;-87
2021/12/21 08:23:48;;;;;;;23.63;16.30;;;1.30;99.90;;;;;;5016857;28;20533;-86
2021/12/21 08:26:15;;;;;;;27.30;15.40;;;1.10;99.90;;;;;;5018107;28;20185;-91
2021/12/21 08:28:40;;;;;;;26.07;16.23;;;1.10;99.90;;;;;;5018125;28;20182;-89
2021/12/21 08:31:13;;;;;;;26.63;15.17;;;1.10;99.90;;;;;;5019646;28;20205;-89
2021/12/21 08:33:41;;;;;;;24.17;14.83;;;1.10;99.90;;;;;;5034491;28;20272;-91
2021/12/21 08:36:09;;;;;;;29.77;16.27;;;1.10;99.90;;;;;;5019095;28;20201;-89
2021/12/21 08:38:37;;;;;;;27.73;16.10;;;1.20;99.90;;;;;;5034056;28;20182;-91
2021/12/21 08:41:06;;;;;;;34.27;17.07;;;1.20;99.90;;;;;;5019289;28;20212;-91
2021/12/21 08:43:35;;;;;;;28.80;16.73;;;1.10;99.90;;;;;;5019016;28;20178;-91
2021/12/21 08:46:01;;;;;;;28.10;15.73;;;1.40;99.90;;;;;;5019070;28;20175;-89
2021/12/21 08:48:27;;;;;;;31.43;16.07;;;1.50;99.90;;;;;;5019137;28;20178;-93
2021/12/21 08:50:55;;;;;;;29.47;15.27;;;1.70;99.90;;;;;;5019886;28;20253;-91
2021/12/21 08:53:24;;;;;;;29.20;17.13;;;1.80;99.90;;;;;;5022347;28;20368;-91
2021/12/21 08:55:55;;;;;;;32.10;16.43;;;1.80;99.90;;;;;;5025867;28;20170;-84
2021/12/21 08:58:23;;;;;;;28.50;15.83;;;1.90;99.90;;;;;;5017584;28;20181;-90
2021/12/21 09:00:50;;;;;;;26.70;16.30;;;1.90;99.90;;;;;;5017869;28;20185;-89
2021/12/21 09:03:17;;;;;;;28.20;15.53;;;2.00;99.90;;;;;;5020028;28;20657;-85
2021/12/21 09:05:42;;;;;;;29.37;15.33;;;2.10;99.90;;;;;;5018300;28;20609;-85
2021/12/21 09:08:10;;;;;;;30.00;15.63;;;2.20;99.90;;;;;;5019170;28;20260;-86
2021/12/21 09:10:38;;;;;;;24.30;14.90;;;2.30;99.50;;;;;;5017313;28;20550;-84
2021/12/21 09:13:04;;;;;;;24.97;14.63;;;2.40;99.20;;;;;;5043767;28;20205;-87
2021/12/21 09:15:30;;;;;;;20.07;14.37;;;2.50;98.80;;;;;;5028814;28;20186;-82
2021/12/21 09:17:57;;;;;;;26.20;15.00;;;2.80;98.70;;;;;;5028601;28;20257;-82
2021/12/21 09:20:25;;;;;;;25.67;14.83;;;3.00;98.30;;;;;;5035687;28;20205;-89
2021/12/21 09:22:51;;;;;;;24.47;14.67;;;3.10;97.70;;;;;;5051672;28;20185;-84
2021/12/21 09:25:19;;;;;;;23.27;13.33;;;3.30;97.10;;;;;;5050471;28;20197;-90
2021/12/21 09:27:47;;;;;;;23.37;13.37;;;3.40;96.20;;;;;;5033271;28;20202;-87
2021/12/21 09:30:21;;;;;;;21.23;12.40;;;3.60;95.40;;;;;;5040680;28;20185;-91
2021/12/21 09:32:47;;;;;;;22.03;12.97;;;3.90;94.60;;;;;;5025234;28;20206;-86
2021/12/21 09:35:32;;;;;;;29.47;13.57;;;4.20;93.60;;;;;;5044774;28;20161;-85
2021/12/21 09:38:02;;;;;;;29.37;20.30;;;4.30;92.60;;;;;;5043243;28;20178;-86
2021/12/21 09:40:30;;;;;;;21.30;11.90;;;4.40;90.80;;;;;;5032932;28;20201;-92
2021/12/21 09:42:58;;;;;;;18.67;10.80;;;4.60;89.00;;;;;;5046300;28;20209;-88
2021/12/21 09:45:31;;;;;;;17.57;10.43;;;4.40;81.50;;;;;;5037058;28;20177;-95
2021/12/21 09:48:07;;;;;;;20.43;11.20;;;4.40;77.90;;;;;;5029589;28;20210;-91
2021/12/21 09:50:36;;;;;;;13.53;7.37;;;4.60;77.50;;;;;;5041155;28;20185;-92
2021/12/21 09:53:04;;;;;;;15.10;7.23;;;4.80;70.90;;;;;;5036887;28;20192;-91
2021/12/21 09:55:29;;;;;;;21.17;9.60;;;4.60;61.20;;;;;;5042639;28;20186;-93
2021/12/21 09:57:56;;;;;;;19.43;10.13;;;4.60;57.20;;;;;;5048378;28;20177;-88
2021/12/21 10:00:28;;;;;;;17.30;9.63;;;4.70;58.70;;;;;;5051104;28;20201;-93
2021/12/21 10:03:03;;;;;;;16.10;8.07;;;4.60;58.00;;;;;;5041330;28;20154;-86
2021/12/21 10:05:33;;;;;;;19.23;9.23;;;4.80;57.60;;;;;;5033451;28;20190;-87
2021/12/21 10:08:08;;;;;;;15.17;7.23;;;4.80;56.20;;;;;;5048251;28;20191;-83
2021/12/21 10:11:27;;;;;;;12.03;6.40;;;4.90;52.80;;;;;;5047314;28;20165;-84
2021/12/21 10:13:52;;;;;;;11.70;7.10;;;5.00;48.90;;;;;;5023288;28;20298;-92
2021/12/21 10:16:21;;;;;;;11.93;5.57;;;5.20;45.40;;;;;;5025295;28;20166;-89
2021/12/21 10:18:49;;;;;;;8.73;4.97;;;5.70;36.90;;;;;;5034149;28;20226;-86
2021/12/21 10:21:16;;;;;;;6.77;4.97;;;5.80;30.10;;;;;;5047443;28;20220;-83
2021/12/21 10:23:46;;;;;;;10.03;4.90;;;5.50;19.00;;;;;;5041352;28;20193;-83
2021/12/21 10:26:32;;;;;;;9.60;4.87;;;5.30;1.00;;;;;;5054661;28;20239;-87
2021/12/21 10:29:07;;;;;;;19.60;11.40;;;5.30;1.00;;;;;;5018127;28;20181;-91
2021/12/21 10:31:42;;;;;;;22.50;10.87;;;5.00;5.90;;;;;;5033225;28;20161;-95
2021/12/21 10:34:15;;;;;;;20.40;11.57;;;4.90;20.70;;;;;;5048755;28;20231;-89
2021/12/21 10:37:05;;;;;;;18.73;10.87;;;4.60;32.40;;;;;;5058249;28;20189;-91
2021/12/21 10:39:43;;;;;;;21.90;10.90;;;4.60;35.30;;;;;;5046621;28;20178;-91
2021/12/21 10:42:30;;;;;;;12.17;7.40;;;4.80;30.70;;;;;;5035624;28;20224;-89
2021/12/21 10:45:06;;;;;;;17.80;8.67;;;4.80;5.80;;;;;;5038197;28;20230;-89
2021/12/21 10:47:49;;;;;;;12.53;7.07;;;4.90;4.10;;;;;;5039688;28;20170;-90
2021/12/21 10:50:20;;;;;;;12.97;7.43;;;4.90;1.00;;;;;;5011444;28;20201;-90
2021/12/21 10:52:53;;;;;;;11.10;5.47;;;4.80;2.80;;;;;;5029465;28;20216;-89
2021/12/21 10:55:50;;;;;;;9.30;4.60;;;4.90;1.00;;;;;;5029233;28;20254;-95
2021/12/21 10:58:22;;;;;;;13.10;5.83;;;4.90;1.00;;;;;;5017916;28;20190;-83
2021/12/21 11:01:01;;;;;;;16.50;8.03;;;4.90;1.00;;;;;;5018280;28;20177;-90
2021/12/21 11:03:32;;;;;;;12.57;5.67;;;5.00;1.00;;;;;;5037096;28;20188;-83
2021/12/21 11:06:20;;;;;;;12.60;6.00;;;4.80;1.00;;;;;;5043756;28;20167;-84
2021/12/21 11:08:49;;;;;;;9.03;6.03;;;4.90;1.00;;;;;;5049601;28;20181;-87
2021/12/21 11:11:32;;;;;;;7.43;5.00;;;5.00;1.00;;;;;;5044843;28;20185;-84
2021/12/21 11:14:20;;;;;;;11.33;5.57;;;4.90;1.00;;;;;;5057826;28;20240;-88
2021/12/21 11:16:51;;;;;;;13.47;6.20;;;5.00;1.00;;;;;;5058904;28;20176;-87
2021/12/21 11:19:21;;;;;;;9.47;5.20;;;5.20;1.00;;;;;;5040642;28;20188;-90
2021/12/21 11:22:09;;;;;;;10.10;5.20;;;5.10;1.00;;;;;;5041596;28;20266;-86
2021/12/21 11:25:12;;;;;;;14.83;6.20;;;5.10;1.00;;;;;;5045083;28;20237;-82
2021/12/21 11:28:02;;;;;;;17.30;7.40;;;5.10;1.00;;;;;;5058228;28;20200;-80
2021/12/21 11:31:17;;;;;;;13.13;5.37;;;5.10;1.00;;;;;;5039528;28;20147;-86
2021/12/21 11:34:13;;;;;;;9.97;6.73;;;5.10;1.00;;;;;;5039374;28;20228;-84
2021/12/21 11:37:23;;;;;;;15.00;7.20;;;5.20;1.00;;;;;;5031635;28;20166;-86
2021/12/21 11:39:55;;;;;;;13.23;5.50;;;5.20;1.00;;;;;;5039943;28;20291;-92
2021/12/21 11:42:56;;;;;;;11.47;5.80;;;5.30;1.00;;;;;;5046839;28;20188;-91
2021/12/21 11:45:32;;;;;;;9.43;5.23;;;5.30;1.00;;;;;;5040104;28;20193;-88
2021/12/21 11:48:09;;;;;;;8.73;4.90;;;5.30;1.00;;;;;;5027186;28;20756;-88
2021/12/21 11:50:46;;;;;;;11.57;5.70;;;5.30;1.00;;;;;;5035530;28;20169;-92
2021/12/21 11:53:17;;;;;;;13.70;5.60;;;5.40;1.00;;;;;;5060375;28;20193;-91
2021/12/21 11:55:46;;;;;;;9.10;4.83;;;5.40;1.00;;;;;;5044361;28;20169;-89
2021/12/21 11:58:28;;;;;;;9.77;5.43;;;5.50;1.00;;;;;;5043804;28;20166;-90
2021/12/21 12:00:58;;;;;;;9.37;5.17;;;5.60;1.00;;;;;;5023852;28;20186;-86
2021/12/21 12:03:46;;;;;;;9.93;5.10;;;5.70;1.00;;;;;;5055408;28;20164;-83
2021/12/21 12:13:17;;;;;;;7.00;4.77;;;5.90;1.00;;;;;;5049967;28;20293;-94
2021/12/21 12:15:54;;;;;;;8.87;4.90;;;5.90;1.00;;;;;;5054127;28;20174;-86
2021/12/21 12:18:34;;;;;;;12.23;5.07;;;5.80;1.00;;;;;;5072939;28;20173;-83
2021/12/21 12:21:24;;;;;;;7.27;4.43;;;5.90;1.00;;;;;;5073170;28;20185;-86
2021/12/21 12:27:19;;;;;;;7.60;4.43;;;5.80;1.00;;;;;;5049155;28;20177;-86
2021/12/21 12:30:14;;;;;;;9.97;5.00;;;5.80;1.00;;;;;;5049148;28;20189;-90
2021/12/21 12:32:46;;;;;;;7.93;5.30;;;5.90;1.00;;;;;;5051094;28;20169;-82
2021/12/21 12:35:14;;;;;;;9.77;5.43;;;6.00;1.00;;;;;;5054024;28;20212;-89
2021/12/21 12:38:11;;;;;;;16.47;7.30;;;6.10;1.00;;;;;;5051094;28;20150;-87
2021/12/21 12:40:56;;;;;;;13.10;5.80;;;6.30;1.00;;;;;;5038708;28;20193;-82
2021/12/21 12:43:28;;;;;;;11.77;5.30;;;6.40;1.00;;;;;;5040237;28;20165;-86
2021/12/21 12:46:08;;;;;;;8.57;4.70;;;6.50;1.00;;;;;;5057467;28;20169;-82
2021/12/21 12:48:47;;;;;;;8.80;4.80;;;6.60;1.00;;;;;;5055918;28;20173;-84
2021/12/21 12:51:37;;;;;;;8.63;4.37;;;6.30;1.00;;;;;;5044476;28;20162;-88
2021/12/21 12:54:53;;;;;;;10.90;5.10;;;6.30;1.00;;;;;;5042533;28;20288;-92
2021/12/21 12:57:38;;;;;;;9.87;5.07;;;6.50;99.90;;;;;;5055452;28;20158;-87
2021/12/21 13:00:41;;;;;;;10.43;5.20;;;6.50;1.00;;;;;;5057584;28;20150;-84
2021/12/21 13:03:11;;;;;;;9.70;4.70;;;6.50;1.00;;;;;;5052587;28;20228;-86
2021/12/21 13:05:59;;;;;;;8.27;4.70;;;6.50;99.90;;;;;;5055786;28;20181;-85
2021/12/21 13:08:27;;;;;;;12.43;5.90;;;6.40;1.00;;;;;;5056926;28;20216;-84
2021/12/21 13:10:59;;;;;;;10.67;5.00;;;6.40;1.00;;;;;;5055237;28;20165;-84
2021/12/21 13:13:43;;;;;;;11.67;4.90;;;6.40;1.00;;;;;;5054957;28;20272;-83
2021/12/21 13:16:35;;;;;;;10.43;4.77;;;6.30;1.00;;;;;;5055358;28;20181;-89
2021/12/21 13:19:04;;;;;;;10.50;4.80;;;6.30;1.00;;;;;;5053864;28;20178;-82
2021/12/21 13:21:57;;;;;;;9.47;5.20;;;6.20;1.00;;;;;;5055415;28;20181;-92
2021/12/21 13:24:36;;;;;;;8.30;4.60;;;6.10;1.00;;;;;;5044808;28;20193;-90
2021/12/21 13:27:27;;;;;;;10.00;5.13;;;5.90;1.00;;;;;;5045122;28;20154;-86
2021/12/21 13:29:54;;;;;;;9.17;5.97;;;5.90;1.00;;;;;;5072692;28;20189;-87
2021/12/21 13:32:22;;;;;;;8.13;5.07;;;6.00;1.00;;;;;;5058340;28;20200;-90
2021/12/21 13:34:52;;;;;;;8.07;4.80;;;6.10;1.00;;;;;;5052569;28;20209;-91
2021/12/21 13:37:47;;;;;;;6.67;3.93;;;6.10;1.00;;;;;;5053770;28;20217;-89
2021/12/21 13:41:09;;;;;;;11.40;4.57;;;6.00;1.00;;;;;;5041536;28;20170;-82
2021/12/21 13:43:38;;;;;;;8.13;5.00;;;6.10;1.00;;;;;;5056499;28;20170;-84
2021/12/21 13:46:08;;;;;;;9.27;5.17;;;6.00;1.00;;;;;;5049527;28;20209;-83
2021/12/21 13:48:36;;;;;;;13.37;5.67;;;6.00;1.00;;;;;;5047243;28;20249;-87
2021/12/21 13:51:16;;;;;;;10.07;6.43;;;6.20;1.00;;;;;;5029115;28;20226;-84
2021/12/21 13:53:50;;;;;;;10.57;5.60;;;6.20;1.00;;;;;;5048824;28;20222;-81
2021/12/21 13:56:30;;;;;;;10.47;5.43;;;6.10;1.00;;;;;;5035341;28;20292;-89
2021/12/21 13:58:57;;;;;;;15.13;6.80;;;6.10;1.00;;;;;;5028844;28;20194;-89
2021/12/21 14:01:36;;;;;;;10.17;6.27;;;6.10;1.00;;;;;;5044729;28;20234;-92
2021/12/21 14:04:09;;;;;;;12.73;6.73;;;6.10;1.00;;;;;;5038764;28;20197;-83
2021/12/21 14:06:37;;;;;;;11.10;6.47;;;6.20;1.00;;;;;;5037154;28;20244;-83
2021/12/21 14:09:14;;;;;;;9.23;6.03;;;6.20;1.00;;;;;;5032720;28;20174;-86
2021/12/21 14:11:56;;;;;;;14.03;8.03;;;6.20;1.00;;;;;;5042341;28;20515;-90
2021/12/21 14:14:24;;;;;;;14.10;7.17;;;6.10;1.00;;;;;;5032116;28;20209;-91
2021/12/21 14:16:55;;;;;;;12.37;6.73;;;6.20;1.00;;;;;;5049751;28;20162;-85
2021/12/21 14:19:25;;;;;;;14.97;7.20;;;6.00;1.00;;;;;;5053550;28;20163;-85
2021/12/21 14:21:57;;;;;;;14.40;6.50;;;5.90;1.00;;;;;;5055134;28;20229;-83
2021/12/21 14:24:31;;;;;;;11.43;6.73;;;6.00;1.00;;;;;;5054799;28;20587;-87
2021/12/21 14:27:43;;;;;;;12.07;6.60;;;6.00;1.00;;;;;;5049101;28;20186;-90
2021/12/21 14:30:47;;;;;;;14.33;6.03;;;6.10;1.00;;;;;;5030351;28;20166;-90